createdAt,value
2023-04-11T00:00:12.924Z,53.64
2023-04-11T00:02:40.513Z,53.70
2023-04-11T00:05:08.268Z,53.94
2023-04-11T00:07:35.683Z,54.28
2023-04-11T00:10:03.082Z,54.56
2023-04-11T00:12:31.679Z,54.79
2023-04-11T00:14:58.933Z,54.76
2023-04-11T00:17:31.249Z,55.02
2023-04-11T00:20:01.670Z,55.53
2023-04-11T00:22:30.546Z,55.43
2023-04-11T00:24:57.806Z,55.13
2023-04-11T00:27:25.337Z,55.34
2023-04-11T00:29:56.115Z,55.13
2023-04-11T00:32:23.448Z,55.13
2023-04-11T00:34:50.720Z,55.37
2023-04-11T00:37:21.288Z,54.84
2023-04-11T00:39:50.421Z,54.83
2023-04-11T00:42:18.230Z,54.07
2023-04-11T00:44:45.659Z,54.08
2023-04-11T00:47:14.725Z,53.74
2023-04-11T00:49:42.190Z,53.86
2023-04-11T00:52:09.709Z,53.97
2023-04-11T00:54:36.966Z,53.58
2023-04-11T00:57:05.684Z,54.05
2023-04-11T00:59:33.565Z,53.75
2023-04-11T01:02:02.456Z,53.79
2023-04-11T01:04:31.133Z,53.87
2023-04-11T01:07:03.946Z,54.13
2023-04-11T01:09:33.105Z,53.61
2023-04-11T01:12:01.255Z,53.67
2023-04-11T01:14:29.493Z,53.35
2023-04-11T01:16:57.375Z,52.96
2023-04-11T01:19:25.740Z,53.42
2023-04-11T01:21:54.870Z,53.26
2023-04-11T01:24:23.546Z,53.27
2023-04-11T01:26:51.919Z,53.19
2023-04-11T01:29:19.245Z,53.51
2023-04-11T01:31:46.701Z,53.86
2023-04-11T01:34:15.510Z,54.21
2023-04-11T01:36:43.497Z,53.66
2023-04-11T01:39:11.030Z,53.93
2023-04-11T01:41:40.665Z,54.14
2023-04-11T01:44:07.935Z,54.09
2023-04-11T01:46:35.317Z,53.75
2023-04-11T01:49:02.611Z,53.92
2023-04-11T01:51:29.885Z,54.17
2023-04-11T01:53:57.152Z,54.13
2023-04-11T01:56:24.481Z,54.19
2023-04-11T01:58:53.261Z,54.13
2023-04-11T02:01:21.557Z,53.70
2023-04-11T02:03:49.033Z,53.99
2023-04-11T02:06:17.049Z,54.06
2023-04-11T02:08:44.469Z,54.35
2023-04-11T02:11:11.894Z,54.44
2023-04-11T02:13:39.162Z,54.30
2023-04-11T02:16:09.230Z,53.66
2023-04-11T02:18:37.191Z,53.74
2023-04-11T02:21:04.689Z,53.49
2023-04-11T02:23:32.031Z,53.20
2023-04-11T02:25:59.309Z,53.21
2023-04-11T02:28:26.553Z,52.82
2023-04-11T02:30:53.946Z,52.46
2023-04-11T02:33:22.816Z,52.07
2023-04-11T02:35:50.211Z,52.24
2023-04-11T02:38:17.492Z,52.16
2023-04-11T02:40:44.756Z,51.83
2023-04-11T02:43:12.039Z,51.96
2023-04-11T02:45:39.493Z,52.09
2023-04-11T02:48:07.000Z,52.15
2023-04-11T02:50:36.051Z,52.62
2023-04-11T02:53:03.350Z,52.23
2023-04-11T02:55:30.691Z,52.16
2023-04-11T02:57:58.445Z,52.34
2023-04-11T03:00:26.133Z,51.47
2023-04-11T03:02:56.407Z,51.66
2023-04-11T03:05:23.824Z,51.75
2023-04-11T03:07:52.399Z,51.68
2023-04-11T03:10:19.673Z,52.29
2023-04-11T03:12:46.966Z,52.10
2023-04-11T03:15:15.384Z,52.62
2023-04-11T03:17:42.828Z,52.69
2023-04-11T03:20:11.650Z,52.62
2023-04-11T03:22:39.183Z,52.12
2023-04-11T03:25:08.737Z,52.83
2023-04-11T03:27:36.041Z,52.48
2023-04-11T03:30:03.725Z,52.56
2023-04-11T03:32:31.341Z,52.38
2023-04-11T03:35:01.275Z,52.42
2023-04-11T03:37:28.533Z,52.59
2023-04-11T03:39:55.857Z,52.40
2023-04-11T03:42:24.580Z,52.73
2023-04-11T03:44:51.852Z,52.88
2023-04-11T03:47:19.151Z,52.84
2023-04-11T03:49:46.675Z,53.15
2023-04-11T03:52:14.974Z,53.21
2023-04-11T03:54:42.246Z,53.27
2023-04-11T03:57:09.732Z,53.59
2023-04-11T03:59:38.348Z,53.54
2023-04-11T04:02:05.941Z,53.54
2023-04-11T04:04:34.155Z,53.74
2023-04-11T04:07:01.689Z,53.96
2023-04-11T04:09:29.107Z,54.56
2023-04-11T04:11:57.378Z,54.67
2023-04-11T04:14:24.681Z,55.19
2023-04-11T04:16:53.316Z,55.14
2023-04-11T04:19:20.604Z,55.75
2023-04-11T04:21:47.977Z,56.45
2023-04-11T04:24:15.277Z,56.39
2023-04-11T04:26:42.568Z,56.76
2023-04-11T04:29:10.099Z,56.75
2023-04-11T04:31:38.180Z,57.05
2023-04-11T04:34:09.349Z,56.43
2023-04-11T04:36:46.157Z,56.36
2023-04-11T04:39:17.541Z,57.23
2023-04-11T04:41:45.622Z,57.71
2023-04-11T04:44:12.928Z,57.57
2023-04-11T04:46:40.381Z,57.91
2023-04-11T04:49:09.446Z,58.12
2023-04-11T04:51:37.332Z,58.69
2023-04-11T04:54:05.678Z,59.33
2023-04-11T04:56:33.049Z,60.36
2023-04-11T04:59:00.318Z,61.30
2023-04-11T05:01:27.689Z,62.24
2023-04-11T05:04:00.463Z,63.03
2023-04-11T05:06:31.445Z,65.50
2023-04-11T05:08:59.495Z,66.25
2023-04-11T05:11:27.030Z,66.53
2023-04-11T05:13:54.507Z,66.87
2023-04-11T05:16:22.300Z,67.61
2023-04-11T05:18:49.608Z,67.70
2023-04-11T05:21:16.875Z,66.75
2023-04-11T05:23:45.493Z,67.94
2023-04-11T05:26:14.416Z,69.34
2023-04-11T05:28:42.414Z,68.82
2023-04-11T05:31:09.871Z,68.79
2023-04-11T05:33:38.305Z,69.02
2023-04-11T05:36:06.109Z,68.61
2023-04-11T05:38:33.833Z,67.89
2023-04-11T05:41:02.392Z,68.09
2023-04-11T05:43:29.671Z,68.96
2023-04-11T05:45:57.865Z,69.22
2023-04-11T05:48:25.289Z,69.58
2023-04-11T05:50:52.593Z,70.42
2023-04-11T05:53:20.209Z,70.46
2023-04-11T05:55:47.493Z,70.91
2023-04-11T05:58:16.103Z,70.89
2023-04-11T06:00:43.450Z,71.94
2023-04-11T06:03:10.835Z,72.03
2023-04-11T06:05:38.948Z,71.93
2023-04-11T06:08:07.580Z,73.55
2023-04-11T06:10:35.916Z,72.77
2023-04-11T06:13:03.205Z,73.07
2023-04-11T06:15:31.917Z,73.40
2023-04-11T06:17:59.262Z,73.98
2023-04-11T06:20:26.676Z,73.66
2023-04-11T06:22:53.934Z,74.17
2023-04-11T06:25:21.719Z,74.15
2023-04-11T06:27:49.093Z,74.42
2023-04-11T06:30:16.355Z,75.03
2023-04-11T06:32:45.058Z,74.60
2023-04-11T06:35:12.379Z,74.71
2023-04-11T06:37:39.644Z,75.25
2023-04-11T06:40:08.013Z,75.05
2023-04-11T06:42:35.279Z,76.35
2023-04-11T06:45:02.698Z,77.86
2023-04-11T06:47:29.997Z,78.51
2023-04-11T06:49:59.283Z,76.42
2023-04-11T06:52:28.162Z,76.52
2023-04-11T06:54:55.794Z,76.05
2023-04-11T06:57:23.069Z,77.96
2023-04-11T06:59:50.442Z,79.49
2023-04-11T07:02:17.828Z,80.25
2023-04-11T07:04:45.254Z,80.80
2023-04-11T07:07:13.977Z,81.93
2023-04-11T07:09:41.241Z,81.99
2023-04-11T07:12:08.598Z,82.88
2023-04-11T07:14:35.918Z,84.42
2023-04-11T07:17:03.373Z,86.50
2023-04-11T07:19:30.645Z,87.00
2023-04-11T07:21:58.381Z,87.64
2023-04-11T07:24:27.222Z,87.81
2023-04-11T07:26:58.389Z,89.64
2023-04-11T07:29:25.911Z,91.28
2023-04-11T07:31:53.652Z,90.39
2023-04-11T07:34:20.944Z,90.83
2023-04-11T07:36:49.944Z,91.97
2023-04-11T07:39:17.216Z,91.70
2023-04-11T07:41:45.873Z,92.04
2023-04-11T07:44:13.136Z,90.17
2023-04-11T07:46:40.404Z,91.95
2023-04-11T07:49:07.702Z,91.66
2023-04-11T07:51:35.194Z,90.69
2023-04-11T07:54:02.472Z,91.75
2023-04-11T07:56:29.769Z,89.89
2023-04-11T07:58:58.434Z,87.82
2023-04-11T08:01:26.719Z,88.48
2023-04-11T08:03:54.928Z,88.17
2023-04-11T08:06:22.547Z,88.27
2023-04-11T08:08:50.324Z,88.63
2023-04-11T08:11:17.705Z,88.94
2023-04-11T08:13:45.055Z,86.44
2023-04-11T08:16:15.467Z,87.66
2023-04-11T08:18:43.014Z,87.83
2023-04-11T08:21:11.377Z,87.14
2023-04-11T08:23:39.597Z,87.23
2023-04-11T08:26:07.722Z,84.76
2023-04-11T08:28:35.857Z,84.29
2023-04-11T08:31:04.134Z,85.85
2023-04-11T08:33:32.998Z,84.59
2023-04-11T08:36:00.363Z,84.43
2023-04-11T08:38:27.707Z,82.84
2023-04-11T08:40:55.643Z,85.11
2023-04-11T08:43:23.184Z,83.64
2023-04-11T08:45:50.675Z,83.82
2023-04-11T08:48:19.467Z,82.81
2023-04-11T08:50:48.410Z,82.29
2023-04-11T08:53:17.888Z,81.83
2023-04-11T08:55:45.785Z,81.52
2023-04-11T08:58:13.141Z,81.93
2023-04-11T09:00:40.880Z,81.67
2023-04-11T09:03:08.863Z,81.42
2023-04-11T09:05:38.185Z,82.78
2023-04-11T09:08:07.964Z,82.73
2023-04-11T09:10:35.821Z,81.41
2023-04-11T09:13:14.691Z,80.67
2023-04-11T09:15:42.118Z,80.67
2023-04-11T09:18:09.788Z,80.76
2023-04-11T09:20:37.174Z,79.83
2023-04-11T09:23:04.462Z,81.33
2023-04-11T09:25:44.270Z,80.60
2023-04-11T09:28:11.690Z,79.83
2023-04-11T09:30:38.950Z,78.82
2023-04-11T09:33:23.747Z,78.85
2023-04-11T09:35:52.018Z,77.57
2023-04-11T09:38:29.893Z,75.54
2023-04-11T09:40:58.918Z,76.51
2023-04-11T09:43:26.513Z,76.24
2023-04-11T09:46:12.058Z,74.19
2023-04-11T09:48:46.037Z,74.66
2023-04-11T09:51:36.529Z,74.49
2023-04-11T09:54:06.146Z,73.30
2023-04-11T09:56:35.415Z,73.34
2023-04-11T09:59:03.997Z,72.03
2023-04-11T10:01:31.533Z,72.20
2023-04-11T10:04:00.981Z,70.60
2023-04-11T10:06:33.813Z,71.45
2023-04-11T10:09:08.197Z,69.07
2023-04-11T10:11:36.997Z,70.44
2023-04-11T10:14:04.662Z,68.80
2023-04-11T10:16:34.269Z,67.16
2023-04-11T10:19:20.438Z,64.92
2023-04-11T10:21:47.933Z,64.66
2023-04-11T10:24:17.490Z,65.15
2023-04-11T10:26:51.491Z,66.55
2023-04-11T10:29:40.705Z,63.84
2023-04-11T10:32:11.661Z,62.89
2023-04-11T10:34:40.002Z,60.25
2023-04-11T10:37:08.662Z,59.22
2023-04-11T10:39:50.824Z,59.12
2023-04-11T10:42:28.774Z,58.55
2023-04-11T10:45:10.956Z,60.54
2023-04-11T10:47:38.280Z,59.17
2023-04-11T10:50:25.887Z,57.89
2023-04-11T10:52:54.610Z,59.50
2023-04-11T10:55:22.213Z,54.59
2023-04-11T10:58:05.663Z,55.97
2023-04-11T11:01:02.036Z,55.81
2023-04-11T11:03:31.660Z,58.34
2023-04-11T11:05:59.910Z,58.73
2023-04-11T11:08:30.626Z,59.32
2023-04-11T11:11:00.637Z,69.29
2023-04-11T11:13:38.558Z,71.72
2023-04-11T11:16:07.220Z,74.45
2023-04-11T11:18:34.631Z,76.03
2023-04-11T11:21:02.119Z,78.48
2023-04-11T11:23:30.756Z,77.39
2023-04-11T11:25:58.907Z,78.95
2023-04-11T11:28:26.280Z,76.17
2023-04-11T11:30:55.531Z,76.40
2023-04-11T11:33:23.843Z,74.58
2023-04-11T11:35:53.130Z,72.80
2023-04-11T11:38:21.251Z,70.76
2023-04-11T11:40:50.291Z,70.45
2023-04-11T11:43:17.627Z,72.40
2023-04-11T11:45:45.518Z,73.21
2023-04-11T11:48:20.559Z,75.16
2023-04-11T11:50:47.869Z,76.87
2023-04-11T11:53:16.391Z,74.71
2023-04-11T11:55:44.048Z,75.29
2023-04-11T11:58:12.686Z,76.91
2023-04-11T12:00:40.917Z,79.11
2023-04-11T12:03:09.949Z,79.45
2023-04-11T12:05:37.739Z,80.71
2023-04-11T12:08:05.983Z,78.06
2023-04-11T12:10:39.776Z,77.58
2023-04-11T12:13:19.814Z,79.90
2023-04-11T12:15:50.659Z,79.95
2023-04-11T12:18:20.580Z,75.65
2023-04-11T12:20:47.935Z,76.72
2023-04-11T12:23:15.215Z,73.66
2023-04-11T12:25:42.538Z,73.89
2023-04-11T12:28:10.040Z,76.04
2023-04-11T12:30:38.875Z,78.27
2023-04-11T12:33:06.608Z,78.25
2023-04-11T12:35:34.008Z,75.69
2023-04-11T12:38:01.741Z,73.30
2023-04-11T12:40:30.094Z,73.06
2023-04-11T12:42:57.784Z,71.90
2023-04-11T12:45:25.342Z,68.69
2023-04-11T12:47:54.294Z,69.33
2023-04-11T12:50:23.294Z,70.22
2023-04-11T12:52:51.424Z,69.25
2023-04-11T12:55:18.984Z,69.71
2023-04-11T12:57:46.259Z,69.71
2023-04-11T13:00:14.343Z,69.64
2023-04-11T13:02:44.515Z,66.02
2023-04-11T13:05:15.293Z,62.43
2023-04-11T13:07:44.566Z,65.64
2023-04-11T13:10:13.456Z,64.24
2023-04-11T13:12:41.650Z,59.85
2023-04-11T13:15:09.966Z,60.48
2023-04-11T13:17:37.448Z,59.29
2023-04-11T13:20:07.703Z,59.49
2023-04-11T13:22:36.392Z,59.24
2023-04-11T13:25:03.823Z,58.09
2023-04-11T13:27:31.081Z,57.95
2023-04-11T13:29:58.397Z,57.01
2023-04-11T13:32:26.017Z,57.82
2023-04-11T13:34:53.329Z,57.41
2023-04-11T13:37:20.595Z,59.02
2023-04-11T13:39:49.242Z,56.47
2023-04-11T13:42:16.529Z,58.04
2023-04-11T13:44:43.915Z,57.65
2023-04-11T13:47:11.168Z,57.29
2023-04-11T13:49:38.477Z,55.82
2023-04-11T13:52:05.878Z,55.42
2023-04-11T13:54:33.184Z,55.22
2023-04-11T13:57:06.734Z,56.45
2023-04-11T13:59:34.086Z,57.21
2023-04-11T14:02:02.572Z,56.62
2023-04-11T14:04:30.025Z,55.35
2023-04-11T14:06:57.717Z,56.56
2023-04-11T14:09:25.069Z,57.24
2023-04-11T14:11:52.352Z,57.00
2023-04-11T14:14:21.092Z,57.47
2023-04-11T14:16:48.457Z,56.41
2023-04-11T14:19:16.292Z,55.34
2023-04-11T14:21:43.590Z,54.27
2023-04-11T14:24:11.010Z,54.37
2023-04-11T14:26:38.321Z,57.33
2023-04-11T14:29:05.816Z,61.49
2023-04-11T14:31:34.509Z,59.67
2023-04-11T14:34:01.839Z,57.50
2023-04-11T14:36:29.167Z,58.76
2023-04-11T14:38:56.649Z,59.09
2023-04-11T14:41:24.159Z,59.27
2023-04-11T14:43:51.741Z,60.18
2023-04-11T14:46:19.033Z,57.75
2023-04-11T14:48:47.659Z,55.90
2023-04-11T14:51:14.970Z,55.19
2023-04-11T14:53:42.841Z,55.41
2023-04-11T14:56:10.489Z,53.92
2023-04-11T14:58:37.878Z,52.92
2023-04-11T15:01:05.465Z,54.31
2023-04-11T15:03:32.993Z,54.99
2023-04-11T15:06:01.820Z,54.42
2023-04-11T15:08:29.104Z,54.34
2023-04-11T15:10:56.420Z,56.98
2023-04-11T15:13:23.758Z,54.94
2023-04-11T15:15:51.386Z,57.77
2023-04-11T15:18:20.082Z,59.98
2023-04-11T15:20:47.389Z,59.05
2023-04-11T15:23:16.318Z,58.90
2023-04-11T15:25:43.861Z,59.50
2023-04-11T15:28:11.164Z,54.87
2023-04-11T15:30:46.117Z,55.14
2023-04-11T15:33:13.821Z,56.23
2023-04-11T15:35:41.546Z,56.91
2023-04-11T15:38:08.873Z,55.65
2023-04-11T15:40:38.060Z,50.93
2023-04-11T15:43:06.314Z,47.39
2023-04-11T15:45:34.540Z,48.47
2023-04-11T15:48:01.957Z,48.42
2023-04-11T15:50:29.636Z,50.81
2023-04-11T15:52:57.907Z,49.70
2023-04-11T15:55:25.264Z,49.31
2023-04-11T15:57:53.841Z,48.91
2023-04-11T16:00:22.649Z,49.39
2023-04-11T16:02:50.552Z,50.40
2023-04-11T16:05:20.782Z,52.55
2023-04-11T16:07:48.669Z,51.35
2023-04-11T16:10:16.244Z,52.81
2023-04-11T16:12:43.548Z,52.26
2023-04-11T16:15:12.326Z,52.95
2023-04-11T16:17:40.349Z,54.35
2023-04-11T16:20:12.107Z,55.19
2023-04-11T16:22:41.685Z,55.75
2023-04-11T16:25:09.298Z,57.83
2023-04-11T16:27:36.923Z,58.26
2023-04-11T16:30:05.730Z,56.74
2023-04-11T16:32:34.403Z,55.60
2023-04-11T16:35:01.778Z,53.23
2023-04-11T16:37:29.068Z,52.31
2023-04-11T16:39:56.569Z,50.49
2023-04-11T16:42:23.885Z,48.49
2023-04-11T16:44:51.268Z,50.04
2023-04-11T16:47:18.839Z,47.65
2023-04-11T16:49:50.662Z,50.68
2023-04-11T16:52:17.924Z,52.94
2023-04-11T16:54:45.392Z,53.67
2023-04-11T16:57:12.863Z,54.60
2023-04-11T16:59:40.134Z,55.89
2023-04-11T17:02:07.675Z,56.37
2023-04-11T17:04:35.331Z,56.59
2023-04-11T17:07:04.017Z,56.38
2023-04-11T17:09:31.531Z,54.99
2023-04-11T17:11:58.998Z,56.65
2023-04-11T17:14:29.274Z,58.39
2023-04-11T17:16:56.524Z,58.78
2023-04-11T17:19:25.550Z,60.59
2023-04-11T17:21:52.955Z,58.45
2023-04-11T17:24:21.543Z,59.05
2023-04-11T17:26:48.835Z,59.14
2023-04-11T17:29:16.659Z,60.72
2023-04-11T17:31:43.932Z,61.20
2023-04-11T17:34:11.311Z,62.80
2023-04-11T17:36:42.698Z,62.91
2023-04-11T17:39:11.145Z,62.22
2023-04-11T17:41:39.803Z,62.56
2023-04-11T17:44:07.123Z,62.34
2023-04-11T17:46:34.427Z,61.93
2023-04-11T17:49:01.752Z,62.80
2023-04-11T17:51:29.426Z,63.05
2023-04-11T17:53:57.003Z,63.13
2023-04-11T17:56:24.519Z,62.27
2023-04-11T17:58:53.587Z,62.13
2023-04-11T18:01:20.937Z,62.64
2023-04-11T18:03:50.329Z,62.24
2023-04-11T18:06:18.042Z,62.60
2023-04-11T18:08:50.333Z,64.45
2023-04-11T18:11:19.171Z,63.83
2023-04-11T18:13:49.248Z,63.28
2023-04-11T18:16:18.986Z,64.22
2023-04-11T18:18:46.606Z,64.47
2023-04-11T18:21:13.863Z,64.03
2023-04-11T18:23:41.126Z,63.06
2023-04-11T18:26:08.393Z,64.07
2023-04-11T18:28:36.210Z,66.13
2023-04-11T18:31:03.513Z,66.67
2023-04-11T18:33:32.723Z,67.18
2023-04-11T18:36:00.238Z,68.77
2023-04-11T18:38:27.577Z,68.74
2023-04-11T18:40:56.448Z,65.62
2023-04-11T18:43:24.708Z,63.71
2023-04-11T18:45:52.293Z,62.40
2023-04-11T18:48:19.686Z,62.77
2023-04-11T18:50:57.566Z,62.29
2023-04-11T18:53:25.814Z,62.34
2023-04-11T18:55:53.224Z,59.96
2023-04-11T18:58:24.166Z,60.06
2023-04-11T19:00:52.871Z,62.21
2023-04-11T19:03:20.979Z,64.13
2023-04-11T19:05:50.541Z,65.58
2023-04-11T19:08:17.891Z,65.94
2023-04-11T19:13:36.454Z,66.97
2023-04-11T19:16:03.767Z,67.38
2023-04-11T19:18:31.273Z,68.02
2023-04-11T19:20:59.850Z,66.76
2023-04-11T19:23:30.598Z,68.03
2023-04-11T19:26:00.488Z,68.16
2023-04-11T19:28:28.087Z,68.68
2023-04-11T19:30:55.410Z,68.12
2023-04-11T19:33:23.911Z,67.70
2023-04-11T19:35:51.192Z,67.92
2023-04-11T19:38:19.782Z,68.40
2023-04-11T19:40:47.136Z,68.70
2023-04-11T19:43:14.457Z,69.13
2023-04-11T19:45:42.881Z,69.85
2023-04-11T19:48:10.664Z,70.60
2023-04-11T19:50:37.965Z,70.40
2023-04-11T19:53:05.235Z,70.51
2023-04-11T19:55:34.102Z,70.60
2023-04-11T19:58:01.608Z,70.66
2023-04-11T20:00:31.951Z,71.04
2023-04-11T20:02:59.669Z,71.36
2023-04-11T20:05:28.051Z,71.74
2023-04-11T20:07:55.314Z,72.18
2023-04-11T20:10:22.723Z,72.82
2023-04-11T20:12:52.866Z,74.04
2023-04-11T20:15:20.122Z,75.84
2023-04-11T20:17:50.615Z,75.69
2023-04-11T20:20:19.521Z,73.94
2023-04-11T20:22:47.987Z,72.90
2023-04-11T20:25:15.579Z,74.70
2023-04-11T20:27:43.681Z,75.18
2023-04-11T20:30:16.591Z,75.76
2023-04-11T20:32:44.360Z,74.75
2023-04-11T20:35:12.786Z,75.58
2023-04-11T20:37:41.212Z,75.32
2023-04-11T20:40:10.060Z,74.94
2023-04-11T20:42:40.004Z,75.59
2023-04-11T20:45:10.056Z,75.63
2023-04-11T20:47:38.997Z,76.37
2023-04-11T20:50:08.882Z,77.14
2023-04-11T20:52:36.860Z,76.89
2023-04-11T20:55:04.294Z,76.27
2023-04-11T20:57:31.643Z,76.04
2023-04-11T20:59:58.986Z,76.91
2023-04-11T21:02:27.652Z,76.74
2023-04-11T21:04:56.422Z,76.53
2023-04-11T21:07:23.730Z,76.60
2023-04-11T21:09:51.678Z,77.19
2023-04-11T21:12:19.000Z,77.84
2023-04-11T21:14:46.312Z,78.07
2023-04-11T21:17:13.638Z,78.78
2023-04-11T21:19:40.892Z,78.34
2023-04-11T21:22:09.698Z,78.65
2023-04-11T21:24:37.024Z,80.15
2023-04-11T21:27:04.308Z,80.27
2023-04-11T21:29:31.569Z,79.13
2023-04-11T21:31:58.950Z,79.74
2023-04-11T21:34:26.209Z,80.77
2023-04-11T21:36:53.495Z,80.99
2023-04-11T21:39:22.221Z,82.49
2023-04-11T21:41:49.532Z,82.04
2023-04-11T21:44:16.948Z,81.70
2023-04-11T21:46:44.756Z,82.00
2023-04-11T21:49:12.060Z,82.53
2023-04-11T21:51:39.335Z,82.63
2023-04-11T21:54:07.190Z,82.47
2023-04-11T21:56:35.806Z,82.25
2023-04-11T21:59:03.059Z,81.62
2023-04-11T22:01:30.880Z,82.58
2023-04-11T22:03:59.010Z,81.85
2023-04-11T22:06:30.154Z,81.04
2023-04-11T22:09:01.363Z,80.96
2023-04-11T22:11:29.562Z,81.77
2023-04-11T22:13:58.644Z,81.53
2023-04-11T22:16:30.917Z,84.12
2023-04-11T22:18:59.506Z,83.98
2023-04-11T22:21:27.182Z,83.38
2023-04-11T22:23:56.380Z,83.84
2023-04-11T22:26:26.497Z,83.92
2023-04-11T22:28:55.028Z,84.40
2023-04-11T22:31:30.059Z,84.02
2023-04-11T22:33:57.953Z,84.63
2023-04-11T22:36:25.445Z,84.46
2023-04-11T22:38:52.866Z,83.56
2023-04-11T22:41:20.139Z,83.66
2023-04-11T22:43:47.394Z,83.82
2023-04-11T22:46:14.742Z,83.89
2023-04-11T22:48:43.648Z,85.43
2023-04-11T22:51:11.287Z,86.31
2023-04-11T22:53:41.976Z,85.75
2023-04-11T22:56:09.479Z,86.04
2023-04-11T22:58:37.752Z,85.31
2023-04-11T23:01:05.719Z,86.11
2023-04-11T23:03:33.062Z,86.33
2023-04-11T23:06:01.647Z,86.21
2023-04-11T23:08:29.918Z,85.96
2023-04-11T23:10:57.296Z,86.02
2023-04-11T23:13:24.588Z,86.55
2023-04-11T23:15:52.315Z,86.61
2023-04-11T23:18:19.690Z,85.90
2023-04-11T23:20:48.743Z,86.05
2023-04-11T23:23:17.554Z,86.75
2023-04-11T23:25:45.388Z,86.85
2023-04-11T23:28:12.847Z,86.56
2023-04-11T23:30:40.344Z,87.14
2023-04-11T23:33:09.084Z,87.56
2023-04-11T23:35:36.989Z,87.95
2023-04-11T23:38:04.321Z,87.50
2023-04-11T23:40:33.465Z,87.98
2023-04-11T23:43:00.865Z,87.53
2023-04-11T23:45:28.184Z,86.64
2023-04-11T23:47:56.072Z,86.92
2023-04-11T23:50:23.370Z,87.36
2023-04-11T23:52:50.634Z,87.81
2023-04-11T23:55:17.955Z,88.08
2023-04-11T23:57:46.540Z,88.29
